sensor_id;sensor_type;location;lat;lon;timestamp;P1;durP1;ratioP1;P2;durP2;ratioP2
66927;SDS011;59882;45.624;11.698;2022-11-27T00:01:35;25.38;;;13.98;;
66927;SDS011;59882;45.624;11.698;2022-11-27T00:04:04;27.13;;;14.70;;
66927;SDS011;59882;45.624;11.698;2022-11-27T00:06:30;27.38;;;15.80;;
66927;SDS011;59882;45.624;11.698;2022-11-27T00:08:57;27.38;;;15.57;;
66927;SDS011;59882;45.624;11.698;2022-11-27T00:11:24;24.73;;;15.60;;
66927;SDS011;59882;45.624;11.698;2022-11-27T00:13:51;26.48;;;14.68;;
66927;SDS011;59882;45.624;11.698;2022-11-27T00:16:17;25.80;;;14.33;;
66927;SDS011;59882;45.624;11.698;2022-11-27T00:18:44;27.75;;;14.73;;
66927;SDS011;59882;45.624;11.698;2022-11-27T00:21:17;28.13;;;16.17;;
66927;SDS011;59882;45.624;11.698;2022-11-27T00:23:48;27.45;;;16.25;;
66927;SDS011;59882;45.624;11.698;2022-11-27T00:26:15;25.75;;;15.30;;
66927;SDS011;59882;45.624;11.698;2022-11-27T00:28:41;26.20;;;15.17;;
66927;SDS011;59882;45.624;11.698;2022-11-27T00:31:08;24.73;;;14.77;;
66927;SDS011;59882;45.624;11.698;2022-11-27T00:33:38;26.55;;;14.95;;
66927;SDS011;59882;45.624;11.698;2022-11-27T00:36:04;26.97;;;16.03;;
66927;SDS011;59882;45.624;11.698;2022-11-27T00:38:31;26.83;;;15.80;;
66927;SDS011;59882;45.624;11.698;2022-11-27T00:40:58;27.42;;;16.15;;
66927;SDS011;59882;45.624;11.698;2022-11-27T00:43:50;26.03;;;15.43;;
66927;SDS011;59882;45.624;11.698;2022-11-27T00:46:19;24.08;;;14.38;;
66927;SDS011;59882;45.624;11.698;2022-11-27T00:48:46;27.85;;;15.07;;
66927;SDS011;59882;45.624;11.698;2022-11-27T00:51:14;25.58;;;15.18;;
66927;SDS011;59882;45.624;11.698;2022-11-27T00:53:41;26.47;;;15.63;;
66927;SDS011;59882;45.624;11.698;2022-11-27T00:56:08;25.80;;;13.95;;
66927;SDS011;59882;45.624;11.698;2022-11-27T00:58:38;24.23;;;14.25;;
66927;SDS011;59882;45.624;11.698;2022-11-27T01:01:04;22.50;;;13.97;;
66927;SDS011;59882;45.624;11.698;2022-11-27T01:03:31;24.00;;;14.90;;
66927;SDS011;59882;45.624;11.698;2022-11-27T01:06:03;30.85;;;15.60;;
66927;SDS011;59882;45.624;11.698;2022-11-27T01:08:30;27.08;;;15.18;;
66927;SDS011;59882;45.624;11.698;2022-11-27T01:10:56;28.77;;;15.50;;
66927;SDS011;59882;45.624;11.698;2022-11-27T01:13:23;25.63;;;14.40;;
66927;SDS011;59882;45.624;11.698;2022-11-27T01:18:27;25.00;;;14.82;;
66927;SDS011;59882;45.624;11.698;2022-11-27T01:20:54;25.52;;;14.82;;
66927;SDS011;59882;45.624;11.698;2022-11-27T01:23:20;23.43;;;14.37;;
66927;SDS011;59882;45.624;11.698;2022-11-27T01:25:47;27.17;;;14.32;;
66927;SDS011;59882;45.624;11.698;2022-11-27T01:28:13;26.80;;;14.32;;
66927;SDS011;59882;45.624;11.698;2022-11-27T01:30:40;25.67;;;13.63;;
66927;SDS011;59882;45.624;11.698;2022-11-27T01:33:06;24.53;;;13.07;;
66927;SDS011;59882;45.624;11.698;2022-11-27T01:35:31;21.15;;;11.98;;
66927;SDS011;59882;45.624;11.698;2022-11-27T01:37:57;22.10;;;13.30;;
66927;SDS011;59882;45.624;11.698;2022-11-27T01:40:23;23.35;;;12.93;;
66927;SDS011;59882;45.624;11.698;2022-11-27T01:42:49;24.03;;;13.93;;
66927;SDS011;59882;45.624;11.698;2022-11-27T01:45:15;19.75;;;12.60;;
66927;SDS011;59882;45.624;11.698;2022-11-27T01:47:53;22.77;;;12.50;;
66927;SDS011;59882;45.624;11.698;2022-11-27T01:50:24;21.17;;;11.27;;
66927;SDS011;59882;45.624;11.698;2022-11-27T01:53:20;19.63;;;10.80;;
66927;SDS011;59882;45.624;11.698;2022-11-27T01:55:46;15.75;;;9.57;;
66927;SDS011;59882;45.624;11.698;2022-11-27T01:58:17;15.40;;;9.02;;
66927;SDS011;59882;45.624;11.698;2022-11-27T02:00:47;12.88;;;7.38;;
66927;SDS011;59882;45.624;11.698;2022-11-27T02:03:12;11.33;;;6.27;;
66927;SDS011;59882;45.624;11.698;2022-11-27T02:05:39;11.63;;;5.82;;
66927;SDS011;59882;45.624;11.698;2022-11-27T02:08:06;12.73;;;5.28;;
66927;SDS011;59882;45.624;11.698;2022-11-27T02:15:59;9.90;;;5.28;;
66927;SDS011;59882;45.624;11.698;2022-11-27T02:18:39;10.88;;;4.75;;
66927;SDS011;59882;45.624;11.698;2022-11-27T02:29:10;8.50;;;4.50;;
66927;SDS011;59882;45.624;11.698;2022-11-27T02:34:44;9.80;;;4.40;;
66927;SDS011;59882;45.624;11.698;2022-11-27T02:37:34;9.27;;;4.13;;
66927;SDS011;59882;45.624;11.698;2022-11-27T02:42:56;8.02;;;3.92;;
66927;SDS011;59882;45.624;11.698;2022-11-27T02:45:28;9.30;;;4.78;;
66927;SDS011;59882;45.624;11.698;2022-11-27T02:47:58;7.97;;;4.32;;
66927;SDS011;59882;45.624;11.698;2022-11-27T02:50:24;9.77;;;4.80;;
66927;SDS011;59882;45.624;11.698;2022-11-27T02:52:54;12.90;;;5.03;;
66927;SDS011;59882;45.624;11.698;2022-11-27T02:55:24;9.98;;;4.82;;
66927;SDS011;59882;45.624;11.698;2022-11-27T02:57:55;7.80;;;4.07;;
66927;SDS011;59882;45.624;11.698;2022-11-27T03:00:22;9.00;;;4.53;;
66927;SDS011;59882;45.624;11.698;2022-11-27T03:02:52;9.33;;;4.70;;
66927;SDS011;59882;45.624;11.698;2022-11-27T03:05:23;9.50;;;4.40;;
66927;SDS011;59882;45.624;11.698;2022-11-27T03:13:13;9.83;;;4.00;;
66927;SDS011;59882;45.624;11.698;2022-11-27T03:23:56;8.43;;;4.00;;
66927;SDS011;59882;45.624;11.698;2022-11-27T03:26:23;8.30;;;3.88;;
66927;SDS011;59882;45.624;11.698;2022-11-27T03:28:49;9.52;;;4.50;;
66927;SDS011;59882;45.624;11.698;2022-11-27T03:31:16;8.80;;;4.45;;
66927;SDS011;59882;45.624;11.698;2022-11-27T03:33:41;11.50;;;4.80;;
66927;SDS011;59882;45.624;11.698;2022-11-27T03:36:14;8.68;;;4.15;;
66927;SDS011;59882;45.624;11.698;2022-11-27T03:38:42;8.10;;;4.50;;
66927;SDS011;59882;45.624;11.698;2022-11-27T03:49:36;8.75;;;4.20;;
66927;SDS011;59882;45.624;11.698;2022-11-27T03:53:07;8.65;;;4.68;;
66927;SDS011;59882;45.624;11.698;2022-11-27T03:55:09;7.28;;;3.78;;
66927;SDS011;59882;45.624;11.698;2022-11-27T03:57:45;8.60;;;3.90;;
66927;SDS011;59882;45.624;11.698;2022-11-27T04:00:21;9.00;;;4.07;;
66927;SDS011;59882;45.624;11.698;2022-11-27T04:02:51;9.90;;;5.03;;
66927;SDS011;59882;45.624;11.698;2022-11-27T04:05:18;9.90;;;5.55;;
66927;SDS011;59882;45.624;11.698;2022-11-27T04:07:45;11.02;;;5.95;;
66927;SDS011;59882;45.624;11.698;2022-11-27T04:10:10;13.07;;;5.77;;
66927;SDS011;59882;45.624;11.698;2022-11-27T04:12:37;13.95;;;6.47;;
66927;SDS011;59882;45.624;11.698;2022-11-27T04:15:03;11.90;;;5.77;;
66927;SDS011;59882;45.624;11.698;2022-11-27T04:17:29;11.67;;;6.80;;
66927;SDS011;59882;45.624;11.698;2022-11-27T04:19:55;12.90;;;7.40;;
66927;SDS011;59882;45.624;11.698;2022-11-27T04:22:21;24.23;;;8.03;;
66927;SDS011;59882;45.624;11.698;2022-11-27T04:24:47;15.73;;;7.85;;
66927;SDS011;59882;45.624;11.698;2022-11-27T04:27:13;21.00;;;7.72;;
66927;SDS011;59882;45.624;11.698;2022-11-27T04:29:38;17.90;;;8.57;;
66927;SDS011;59882;45.624;11.698;2022-11-27T04:32:04;19.33;;;8.75;;
66927;SDS011;59882;45.624;11.698;2022-11-27T04:34:30;16.70;;;9.68;;
66927;SDS011;59882;45.624;11.698;2022-11-27T04:36:56;13.67;;;8.10;;
66927;SDS011;59882;45.624;11.698;2022-11-27T04:39:22;17.63;;;9.55;;
66927;SDS011;59882;45.624;11.698;2022-11-27T04:41:48;16.97;;;9.27;;
66927;SDS011;59882;45.624;11.698;2022-11-27T04:44:14;17.80;;;9.40;;
66927;SDS011;59882;45.624;11.698;2022-11-27T04:46:39;18.58;;;9.15;;
66927;SDS011;59882;45.624;11.698;2022-11-27T04:49:05;17.20;;;8.80;;
66927;SDS011;59882;45.624;11.698;2022-11-27T04:51:31;17.45;;;9.32;;
66927;SDS011;59882;45.624;11.698;2022-11-27T04:53:57;16.98;;;9.48;;
66927;SDS011;59882;45.624;11.698;2022-11-27T04:56:22;17.67;;;8.87;;
66927;SDS011;59882;45.624;11.698;2022-11-27T04:58:48;17.67;;;8.27;;
66927;SDS011;59882;45.624;11.698;2022-11-27T05:01:14;18.80;;;8.60;;
66927;SDS011;59882;45.624;11.698;2022-11-27T05:03:40;17.17;;;8.70;;
66927;SDS011;59882;45.624;11.698;2022-11-27T05:06:06;16.98;;;8.90;;
66927;SDS011;59882;45.624;11.698;2022-11-27T05:08:32;17.45;;;9.02;;
66927;SDS011;59882;45.624;11.698;2022-11-27T05:11:01;14.23;;;7.75;;
66927;SDS011;59882;45.624;11.698;2022-11-27T05:13:27;18.08;;;8.32;;
66927;SDS011;59882;45.624;11.698;2022-11-27T05:15:53;13.87;;;7.37;;
66927;SDS011;59882;45.624;11.698;2022-11-27T05:18:19;17.98;;;7.78;;
66927;SDS011;59882;45.624;11.698;2022-11-27T05:20:45;15.77;;;6.97;;
66927;SDS011;59882;45.624;11.698;2022-11-27T05:23:10;16.75;;;7.50;;
66927;SDS011;59882;45.624;11.698;2022-11-27T05:25:36;13.10;;;7.17;;
66927;SDS011;59882;45.624;11.698;2022-11-27T05:28:01;11.45;;;6.68;;
66927;SDS011;59882;45.624;11.698;2022-11-27T05:30:27;14.90;;;6.63;;
66927;SDS011;59882;45.624;11.698;2022-11-27T05:32:53;12.10;;;6.28;;
66927;SDS011;59882;45.624;11.698;2022-11-27T05:35:18;14.77;;;6.60;;
66927;SDS011;59882;45.624;11.698;2022-11-27T05:37:44;14.30;;;6.83;;
66927;SDS011;59882;45.624;11.698;2022-11-27T05:40:10;11.75;;;6.57;;
66927;SDS011;59882;45.624;11.698;2022-11-27T05:42:35;12.10;;;6.70;;
66927;SDS011;59882;45.624;11.698;2022-11-27T05:45:03;11.52;;;6.22;;
66927;SDS011;59882;45.624;11.698;2022-11-27T05:47:29;13.20;;;6.63;;
66927;SDS011;59882;45.624;11.698;2022-11-27T05:49:54;19.13;;;7.53;;
66927;SDS011;59882;45.624;11.698;2022-11-27T05:52:20;11.37;;;6.20;;
66927;SDS011;59882;45.624;11.698;2022-11-27T05:54:45;12.63;;;6.43;;
66927;SDS011;59882;45.624;11.698;2022-11-27T05:57:11;10.97;;;6.00;;
66927;SDS011;59882;45.624;11.698;2022-11-27T05:59:37;10.98;;;6.15;;
66927;SDS011;59882;45.624;11.698;2022-11-27T06:02:02;13.63;;;5.90;;
66927;SDS011;59882;45.624;11.698;2022-11-27T06:04:31;10.38;;;5.40;;
66927;SDS011;59882;45.624;11.698;2022-11-27T06:06:57;11.43;;;5.95;;
66927;SDS011;59882;45.624;11.698;2022-11-27T06:09:23;15.87;;;5.43;;
66927;SDS011;59882;45.624;11.698;2022-11-27T06:11:48;10.60;;;5.43;;
66927;SDS011;59882;45.624;11.698;2022-11-27T06:14:14;12.50;;;5.90;;
66927;SDS011;59882;45.624;11.698;2022-11-27T06:16:40;13.80;;;6.00;;
66927;SDS011;59882;45.624;11.698;2022-11-27T06:19:06;11.93;;;5.97;;
66927;SDS011;59882;45.624;11.698;2022-11-27T06:21:32;12.32;;;6.13;;
66927;SDS011;59882;45.624;11.698;2022-11-27T06:26:27;13.32;;;6.53;;
66927;SDS011;59882;45.624;11.698;2022-11-27T06:28:54;10.40;;;6.05;;
66927;SDS011;59882;45.624;11.698;2022-11-27T06:31:22;13.65;;;6.05;;
66927;SDS011;59882;45.624;11.698;2022-11-27T06:33:50;11.60;;;4.57;;
66927;SDS011;59882;45.624;11.698;2022-11-27T06:36:16;10.07;;;5.43;;
66927;SDS011;59882;45.624;11.698;2022-11-27T06:38:43;10.95;;;5.32;;
66927;SDS011;59882;45.624;11.698;2022-11-27T06:41:12;18.25;;;7.22;;
66927;SDS011;59882;45.624;11.698;2022-11-27T06:43:39;14.18;;;7.13;;
66927;SDS011;59882;45.624;11.698;2022-11-27T06:46:05;14.43;;;8.20;;
66927;SDS011;59882;45.624;11.698;2022-11-27T06:48:32;13.77;;;7.57;;
66927;SDS011;59882;45.624;11.698;2022-11-27T06:50:59;11.57;;;6.15;;
66927;SDS011;59882;45.624;11.698;2022-11-27T06:53:29;11.88;;;6.40;;
66927;SDS011;59882;45.624;11.698;2022-11-27T06:55:56;13.07;;;6.40;;
66927;SDS011;59882;45.624;11.698;2022-11-27T06:58:22;13.70;;;6.32;;
66927;SDS011;59882;45.624;11.698;2022-11-27T07:00:47;13.38;;;5.72;;
66927;SDS011;59882;45.624;11.698;2022-11-27T07:03:13;10.47;;;5.87;;
66927;SDS011;59882;45.624;11.698;2022-11-27T07:05:39;12.75;;;5.90;;
66927;SDS011;59882;45.624;11.698;2022-11-27T07:08:04;16.60;;;7.13;;
66927;SDS011;59882;45.624;11.698;2022-11-27T07:10:34;18.10;;;9.53;;
66927;SDS011;59882;45.624;11.698;2022-11-27T07:13:00;20.35;;;10.45;;
66927;SDS011;59882;45.624;11.698;2022-11-27T07:15:25;20.50;;;10.45;;
66927;SDS011;59882;45.624;11.698;2022-11-27T07:17:51;16.57;;;8.10;;
66927;SDS011;59882;45.624;11.698;2022-11-27T07:20:17;13.55;;;6.60;;
66927;SDS011;59882;45.624;11.698;2022-11-27T07:22:42;18.07;;;8.03;;
66927;SDS011;59882;45.624;11.698;2022-11-27T07:25:08;15.47;;;8.43;;
66927;SDS011;59882;45.624;11.698;2022-11-27T07:27:34;18.87;;;9.47;;
66927;SDS011;59882;45.624;11.698;2022-11-27T07:29:59;17.60;;;9.73;;
66927;SDS011;59882;45.624;11.698;2022-11-27T07:32:25;16.73;;;9.17;;
66927;SDS011;59882;45.624;11.698;2022-11-27T07:34:51;20.25;;;9.73;;
66927;SDS011;59882;45.624;11.698;2022-11-27T07:37:16;15.07;;;8.80;;
66927;SDS011;59882;45.624;11.698;2022-11-27T07:39:42;24.70;;;9.73;;
66927;SDS011;59882;45.624;11.698;2022-11-27T07:42:07;19.77;;;9.87;;
66927;SDS011;59882;45.624;11.698;2022-11-27T07:44:33;16.37;;;9.17;;
66927;SDS011;59882;45.624;11.698;2022-11-27T07:46:59;16.23;;;9.82;;
66927;SDS011;59882;45.624;11.698;2022-11-27T07:49:24;18.77;;;9.83;;
66927;SDS011;59882;45.624;11.698;2022-11-27T07:51:50;27.43;;;9.37;;
66927;SDS011;59882;45.624;11.698;2022-11-27T07:54:15;20.07;;;9.10;;
66927;SDS011;59882;45.624;11.698;2022-11-27T07:56:41;19.13;;;9.70;;
66927;SDS011;59882;45.624;11.698;2022-11-27T07:59:06;16.92;;;8.32;;
66927;SDS011;59882;45.624;11.698;2022-11-27T08:01:32;15.87;;;7.60;;
66927;SDS011;59882;45.624;11.698;2022-11-27T08:03:58;21.83;;;11.27;;
66927;SDS011;59882;45.624;11.698;2022-11-27T08:06:24;18.57;;;11.67;;
66927;SDS011;59882;45.624;11.698;2022-11-27T08:08:51;22.25;;;12.77;;
66927;SDS011;59882;45.624;11.698;2022-11-27T08:11:21;20.55;;;11.18;;
66927;SDS011;59882;45.624;11.698;2022-11-27T08:13:55;22.63;;;10.30;;
66927;SDS011;59882;45.624;11.698;2022-11-27T08:16:21;14.13;;;7.97;;
66927;SDS011;59882;45.624;11.698;2022-11-27T08:18:47;16.15;;;7.32;;
66927;SDS011;59882;45.624;11.698;2022-11-27T08:21:13;15.10;;;7.33;;
66927;SDS011;59882;45.624;11.698;2022-11-27T08:23:39;14.05;;;7.55;;
66927;SDS011;59882;45.624;11.698;2022-11-27T08:26:08;14.30;;;6.53;;
66927;SDS011;59882;45.624;11.698;2022-11-27T08:28:35;12.43;;;7.03;;
66927;SDS011;59882;45.624;11.698;2022-11-27T08:31:02;13.65;;;6.18;;
66927;SDS011;59882;45.624;11.698;2022-11-27T08:33:29;11.00;;;6.60;;
66927;SDS011;59882;45.624;11.698;2022-11-27T08:35:55;12.40;;;6.22;;
66927;SDS011;59882;45.624;11.698;2022-11-27T08:38:21;10.00;;;4.77;;
66927;SDS011;59882;45.624;11.698;2022-11-27T08:40:57;10.48;;;4.95;;
66927;SDS011;59882;45.624;11.698;2022-11-27T08:43:25;10.02;;;4.63;;
66927;SDS011;59882;45.624;11.698;2022-11-27T08:45:51;10.07;;;4.53;;
66927;SDS011;59882;45.624;11.698;2022-11-27T08:48:18;7.68;;;4.03;;
66927;SDS011;59882;45.624;11.698;2022-11-27T08:50:46;9.45;;;4.47;;
66927;SDS011;59882;45.624;11.698;2022-11-27T08:53:12;9.38;;;4.28;;
66927;SDS011;59882;45.624;11.698;2022-11-27T08:55:38;9.70;;;4.63;;
66927;SDS011;59882;45.624;11.698;2022-11-27T08:58:04;9.63;;;4.27;;
66927;SDS011;59882;45.624;11.698;2022-11-27T09:00:31;9.07;;;3.63;;
66927;SDS011;59882;45.624;11.698;2022-11-27T09:02:58;9.05;;;3.67;;
66927;SDS011;59882;45.624;11.698;2022-11-27T09:05:24;8.70;;;3.57;;
66927;SDS011;59882;45.624;11.698;2022-11-27T09:07:50;6.53;;;3.22;;
66927;SDS011;59882;45.624;11.698;2022-11-27T09:10:16;9.73;;;3.50;;
66927;SDS011;59882;45.624;11.698;2022-11-27T09:12:42;8.60;;;3.60;;
66927;SDS011;59882;45.624;11.698;2022-11-27T09:15:09;9.55;;;3.80;;
66927;SDS011;59882;45.624;11.698;2022-11-27T09:17:35;8.38;;;3.88;;
66927;SDS011;59882;45.624;11.698;2022-11-27T09:20:01;8.07;;;3.57;;
66927;SDS011;59882;45.624;11.698;2022-11-27T09:22:27;7.18;;;2.90;;
66927;SDS011;59882;45.624;11.698;2022-11-27T09:24:52;8.57;;;3.00;;
66927;SDS011;59882;45.624;11.698;2022-11-27T09:27:18;6.88;;;3.33;;
66927;SDS011;59882;45.624;11.698;2022-11-27T09:29:43;7.27;;;3.10;;
66927;SDS011;59882;45.624;11.698;2022-11-27T09:32:09;9.23;;;3.00;;
66927;SDS011;59882;45.624;11.698;2022-11-27T09:34:34;10.20;;;3.77;;
66927;SDS011;59882;45.624;11.698;2022-11-27T09:37:00;10.00;;;4.43;;
66927;SDS011;59882;45.624;11.698;2022-11-27T09:39:27;8.52;;;3.45;;
66927;SDS011;59882;45.624;11.698;2022-11-27T09:41:58;8.30;;;3.33;;
66927;SDS011;59882;45.624;11.698;2022-11-27T09:50:12;7.80;;;3.45;;
66927;SDS011;59882;45.624;11.698;2022-11-27T09:55:16;8.15;;;3.35;;
66927;SDS011;59882;45.624;11.698;2022-11-27T09:58:34;7.97;;;2.37;;
66927;SDS011;59882;45.624;11.698;2022-11-27T10:00:42;9.27;;;2.65;;
66927;SDS011;59882;45.624;11.698;2022-11-27T10:03:19;6.30;;;2.88;;
66927;SDS011;59882;45.624;11.698;2022-11-27T10:06:02;7.68;;;2.90;;
66927;SDS011;59882;45.624;11.698;2022-11-27T10:09:01;7.07;;;2.67;;
66927;SDS011;59882;45.624;11.698;2022-11-27T10:11:43;9.17;;;3.27;;
66927;SDS011;59882;45.624;11.698;2022-11-27T10:14:42;8.45;;;4.10;;
66927;SDS011;59882;45.624;11.698;2022-11-27T10:17:30;7.57;;;3.10;;
66927;SDS011;59882;45.624;11.698;2022-11-27T10:31:11;6.00;;;2.13;;
66927;SDS011;59882;45.624;11.698;2022-11-27T10:34:03;5.13;;;2.00;;
66927;SDS011;59882;45.624;11.698;2022-11-27T10:36:41;7.80;;;2.70;;
66927;SDS011;59882;45.624;11.698;2022-11-27T10:39:23;6.63;;;2.17;;
66927;SDS011;59882;45.624;11.698;2022-11-27T10:42:01;5.85;;;2.22;;
66927;SDS011;59882;45.624;11.698;2022-11-27T10:44:43;7.00;;;3.40;;
66927;SDS011;59882;45.624;11.698;2022-11-27T10:47:14;7.28;;;2.75;;
66927;SDS011;59882;45.624;11.698;2022-11-27T10:49:42;5.10;;;1.92;;
66927;SDS011;59882;45.624;11.698;2022-11-27T10:52:12;5.60;;;2.10;;
66927;SDS011;59882;45.624;11.698;2022-11-27T10:54:40;4.70;;;1.90;;
66927;SDS011;59882;45.624;11.698;2022-11-27T11:03:03;5.35;;;2.20;;
66927;SDS011;59882;45.624;11.698;2022-11-27T11:05:30;4.70;;;1.93;;
66927;SDS011;59882;45.624;11.698;2022-11-27T11:10:33;7.22;;;3.00;;
66927;SDS011;59882;45.624;11.698;2022-11-27T11:13:05;7.82;;;3.03;;
66927;SDS011;59882;45.624;11.698;2022-11-27T11:18:41;6.30;;;3.03;;
66927;SDS011;59882;45.624;11.698;2022-11-27T11:21:36;6.03;;;2.47;;
66927;SDS011;59882;45.624;11.698;2022-11-27T11:26:33;7.78;;;3.47;;
66927;SDS011;59882;45.624;11.698;2022-11-27T11:29:04;6.10;;;2.45;;
66927;SDS011;59882;45.624;11.698;2022-11-27T11:31:41;11.57;;;4.70;;
66927;SDS011;59882;45.624;11.698;2022-11-27T11:34:27;11.02;;;5.30;;
66927;SDS011;59882;45.624;11.698;2022-11-27T11:36:58;9.02;;;4.00;;
66927;SDS011;59882;45.624;11.698;2022-11-27T11:39:43;8.00;;;3.85;;
66927;SDS011;59882;45.624;11.698;2022-11-27T11:42:14;6.15;;;2.67;;
66927;SDS011;59882;45.624;11.698;2022-11-27T11:44:52;5.53;;;2.37;;
66927;SDS011;59882;45.624;11.698;2022-11-27T11:47:47;5.60;;;2.45;;
66927;SDS011;59882;45.624;11.698;2022-11-27T11:51:00;7.90;;;3.42;;
66927;SDS011;59882;45.624;11.698;2022-11-27T11:56:09;7.05;;;3.08;;
66927;SDS011;59882;45.624;11.698;2022-11-27T12:09:49;5.72;;;2.53;;
66927;SDS011;59882;45.624;11.698;2022-11-27T12:13:16;5.13;;;2.70;;
66927;SDS011;59882;45.624;11.698;2022-11-27T12:17:52;5.05;;;2.60;;
66927;SDS011;59882;45.624;11.698;2022-11-27T12:28:54;4.00;;;2.38;;
66927;SDS011;59882;45.624;11.698;2022-11-27T12:43:01;4.32;;;2.38;;
66927;SDS011;59882;45.624;11.698;2022-11-27T12:45:46;4.45;;;2.85;;
66927;SDS011;59882;45.624;11.698;2022-11-27T12:51:11;4.45;;;2.60;;
66927;SDS011;59882;45.624;11.698;2022-11-27T13:02:33;4.50;;;2.50;;
66927;SDS011;59882;45.624;11.698;2022-11-27T13:04:56;5.72;;;3.13;;
66927;SDS011;59882;45.624;11.698;2022-11-27T13:13:03;5.60;;;3.00;;
66927;SDS011;59882;45.624;11.698;2022-11-27T13:16:18;4.07;;;2.60;;
66927;SDS011;59882;45.624;11.698;2022-11-27T13:21:01;4.97;;;2.70;;
66927;SDS011;59882;45.624;11.698;2022-11-27T13:23:32;3.67;;;2.45;;
66927;SDS011;59882;45.624;11.698;2022-11-27T13:25:59;4.38;;;2.80;;
66927;SDS011;59882;45.624;11.698;2022-11-27T13:28:41;3.87;;;2.43;;
66927;SDS011;59882;45.624;11.698;2022-11-27T13:31:28;4.65;;;2.70;;
66927;SDS011;59882;45.624;11.698;2022-11-27T13:34:00;4.95;;;3.00;;
66927;SDS011;59882;45.624;11.698;2022-11-27T13:36:33;5.60;;;3.17;;
66927;SDS011;59882;45.624;11.698;2022-11-27T13:38:59;4.80;;;2.63;;
66927;SDS011;59882;45.624;11.698;2022-11-27T13:41:33;7.00;;;4.10;;
66927;SDS011;59882;45.624;11.698;2022-11-27T13:47:09;5.47;;;3.08;;
66927;SDS011;59882;45.624;11.698;2022-11-27T13:49:38;4.72;;;2.45;;
66927;SDS011;59882;45.624;11.698;2022-11-27T13:54:37;5.85;;;3.25;;
66927;SDS011;59882;45.624;11.698;2022-11-27T13:57:10;4.35;;;2.55;;
66927;SDS011;59882;45.624;11.698;2022-11-27T13:59:53;6.32;;;3.35;;
66927;SDS011;59882;45.624;11.698;2022-11-27T14:02:21;4.97;;;3.00;;
66927;SDS011;59882;45.624;11.698;2022-11-27T14:04:48;7.00;;;2.92;;
66927;SDS011;59882;45.624;11.698;2022-11-27T14:07:15;5.75;;;2.55;;
66927;SDS011;59882;45.624;11.698;2022-11-27T14:14:55;4.40;;;2.00;;
66927;SDS011;59882;45.624;11.698;2022-11-27T14:17:25;5.75;;;2.50;;
66927;SDS011;59882;45.624;11.698;2022-11-27T14:20:27;3.95;;;1.98;;
66927;SDS011;59882;45.624;11.698;2022-11-27T14:22:57;4.95;;;1.88;;
66927;SDS011;59882;45.624;11.698;2022-11-27T14:25:26;4.72;;;2.17;;
66927;SDS011;59882;45.624;11.698;2022-11-27T14:33:21;6.07;;;2.30;;
66927;SDS011;59882;45.624;11.698;2022-11-27T14:36:02;4.85;;;2.15;;
66927;SDS011;59882;45.624;11.698;2022-11-27T14:38:29;5.32;;;3.00;;
66927;SDS011;59882;45.624;11.698;2022-11-27T14:41:07;6.63;;;3.50;;
66927;SDS011;59882;45.624;11.698;2022-11-27T14:43:39;6.90;;;3.53;;
66927;SDS011;59882;45.624;11.698;2022-11-27T14:46:05;6.63;;;3.92;;
66927;SDS011;59882;45.624;11.698;2022-11-27T14:48:50;8.17;;;3.63;;
66927;SDS011;59882;45.624;11.698;2022-11-27T14:51:21;7.20;;;3.55;;
66927;SDS011;59882;45.624;11.698;2022-11-27T14:53:49;5.95;;;3.03;;
66927;SDS011;59882;45.624;11.698;2022-11-27T14:56:20;5.85;;;2.63;;
66927;SDS011;59882;45.624;11.698;2022-11-27T14:58:50;5.82;;;2.97;;
66927;SDS011;59882;45.624;11.698;2022-11-27T15:01:22;8.00;;;3.00;;
66927;SDS011;59882;45.624;11.698;2022-11-27T15:06:38;6.57;;;2.80;;
66927;SDS011;59882;45.624;11.698;2022-11-27T15:09:15;12.27;;;3.63;;
66927;SDS011;59882;45.624;11.698;2022-11-27T15:12:28;6.53;;;3.40;;
66927;SDS011;59882;45.624;11.698;2022-11-27T15:15:06;9.27;;;3.43;;
66927;SDS011;59882;45.624;11.698;2022-11-27T15:17:39;9.85;;;3.60;;
66927;SDS011;59882;45.624;11.698;2022-11-27T15:20:34;12.63;;;3.47;;
66927;SDS011;59882;45.624;11.698;2022-11-27T15:23:22;9.73;;;4.00;;
66927;SDS011;59882;45.624;11.698;2022-11-27T15:28:27;9.20;;;4.03;;
66927;SDS011;59882;45.624;11.698;2022-11-27T15:30:58;9.85;;;4.55;;
66927;SDS011;59882;45.624;11.698;2022-11-27T15:33:25;9.82;;;5.38;;
66927;SDS011;59882;45.624;11.698;2022-11-27T15:38:43;12.27;;;6.60;;
66927;SDS011;59882;45.624;11.698;2022-11-27T15:43:45;15.98;;;7.97;;
66927;SDS011;59882;45.624;11.698;2022-11-27T15:46:11;15.80;;;9.03;;
66927;SDS011;59882;45.624;11.698;2022-11-27T15:48:38;19.80;;;10.80;;
66927;SDS011;59882;45.624;11.698;2022-11-27T15:51:04;17.77;;;9.07;;
66927;SDS011;59882;45.624;11.698;2022-11-27T15:53:30;15.50;;;9.20;;
66927;SDS011;59882;45.624;11.698;2022-11-27T15:55:56;18.08;;;7.32;;
66927;SDS011;59882;45.624;11.698;2022-11-27T15:58:22;14.43;;;6.90;;
66927;SDS011;59882;45.624;11.698;2022-11-27T16:00:48;11.77;;;6.03;;
66927;SDS011;59882;45.624;11.698;2022-11-27T16:03:13;11.47;;;5.17;;
66927;SDS011;59882;45.624;11.698;2022-11-27T16:05:39;8.52;;;4.22;;
66927;SDS011;59882;45.624;11.698;2022-11-27T16:08:05;8.40;;;4.78;;
66927;SDS011;59882;45.624;11.698;2022-11-27T16:10:37;9.88;;;4.65;;
66927;SDS011;59882;45.624;11.698;2022-11-27T16:13:04;9.20;;;4.40;;
66927;SDS011;59882;45.624;11.698;2022-11-27T16:15:30;12.05;;;5.43;;
66927;SDS011;59882;45.624;11.698;2022-11-27T16:17:56;9.65;;;5.05;;
66927;SDS011;59882;45.624;11.698;2022-11-27T16:20:22;12.83;;;7.10;;
66927;SDS011;59882;45.624;11.698;2022-11-27T16:22:48;11.27;;;6.23;;
66927;SDS011;59882;45.624;11.698;2022-11-27T16:25:13;12.02;;;6.07;;
66927;SDS011;59882;45.624;11.698;2022-11-27T16:27:39;16.13;;;7.60;;
66927;SDS011;59882;45.624;11.698;2022-11-27T16:30:05;13.63;;;7.20;;
66927;SDS011;59882;45.624;11.698;2022-11-27T16:32:31;14.37;;;7.27;;
66927;SDS011;59882;45.624;11.698;2022-11-27T16:34:57;12.75;;;7.97;;
66927;SDS011;59882;45.624;11.698;2022-11-27T16:37:22;13.97;;;8.47;;
66927;SDS011;59882;45.624;11.698;2022-11-27T16:39:48;12.63;;;8.77;;
66927;SDS011;59882;45.624;11.698;2022-11-27T16:42:13;15.57;;;9.87;;
66927;SDS011;59882;45.624;11.698;2022-11-27T16:44:39;16.65;;;8.55;;
66927;SDS011;59882;45.624;11.698;2022-11-27T16:47:06;18.13;;;10.60;;
66927;SDS011;59882;45.624;11.698;2022-11-27T16:49:32;22.52;;;12.02;;
66927;SDS011;59882;45.624;11.698;2022-11-27T16:51:58;19.40;;;10.83;;
66927;SDS011;59882;45.624;11.698;2022-11-27T16:54:23;20.35;;;11.65;;
66927;SDS011;59882;45.624;11.698;2022-11-27T16:56:49;17.47;;;11.13;;
66927;SDS011;59882;45.624;11.698;2022-11-27T16:59:15;20.70;;;12.38;;
66927;SDS011;59882;45.624;11.698;2022-11-27T17:01:41;25.20;;;13.15;;
66927;SDS011;59882;45.624;11.698;2022-11-27T17:04:09;23.00;;;14.10;;
66927;SDS011;59882;45.624;11.698;2022-11-27T17:06:40;27.77;;;15.52;;
66927;SDS011;59882;45.624;11.698;2022-11-27T17:09:06;27.55;;;16.73;;
66927;SDS011;59882;45.624;11.698;2022-11-27T17:11:32;23.53;;;15.63;;
66927;SDS011;59882;45.624;11.698;2022-11-27T17:14:01;32.70;;;17.33;;
66927;SDS011;59882;45.624;11.698;2022-11-27T17:16:29;30.05;;;18.08;;
66927;SDS011;59882;45.624;11.698;2022-11-27T17:18:55;33.50;;;18.73;;
66927;SDS011;59882;45.624;11.698;2022-11-27T17:21:28;32.10;;;19.63;;